HUN8BY LPPR-LHBP
Flight info
| Callsign | HUN8BY |
|---|---|
| Flight time | 2h 49m |
| Altitude | 36000 |
| Route | BELDU DCT ADORO DCT ZMR DCT NEA DCT DGO DCT LPA DCT TOPTU DCT SALIN DCT PADKO DCT KOLON DCT VAMTU DCT AMOXI DCT AKADO DCT TUTIV DCT VAJDI |
| Aircraft | B738/M-SDE2E3FGHIJ2J5RWXY/LB1 |
Departure
| Time | 2026-05-05 12:09 |
|---|---|
| Airport | Francisco de Sá Carneiro Airport (LPPR) |
Arrival
| Time | 2026-05-05 14:58 |
|---|---|
| Airport | Budapest Liszt Ferenc International Airport (LHBP) |
| Time | Latitude | Longitude | Altitude | Speed | Heading |
|---|---|---|---|---|---|
| 2026-05-05 11:50 | 41.23733 | -8.67266 | 234 ft | 0 kts | 69° |
| 2026-05-05 12:00 | 41.23731 | -8.67273 | 234 ft | 3 kts | 68° |
| 2026-05-05 12:00 | 41.23723 | -8.67298 | 237 ft | 3 kts | 68° |
| 2026-05-05 12:00 | 41.23716 | -8.67322 | 240 ft | 3 kts | 68° |
| 2026-05-05 12:01 | 41.23709 | -8.67348 | 237 ft | 3 kts | 73° |
| 2026-05-05 12:01 | 41.23704 | -8.67374 | 238 ft | 3 kts | 88° |
| 2026-05-05 12:01 | 41.23705 | -8.67397 | 239 ft | 3 kts | 103° |
| 2026-05-05 12:01 | 41.23712 | -8.67421 | 240 ft | 3 kts | 128° |
| 2026-05-05 12:02 | 41.23726 | -8.67439 | 240 ft | 3 kts | 146° |
| 2026-05-05 12:02 | 41.23743 | -8.67452 | 238 ft | 3 kts | 162° |
| 2026-05-05 12:02 | 41.23755 | -8.67456 | 239 ft | 0 kts | 169° |
| 2026-05-05 12:05 | 41.23754 | -8.67456 | 239 ft | 0 kts | 169° |
| 2026-05-05 12:05 | 41.23743 | -8.67453 | 238 ft | 4 kts | 169° |
| 2026-05-05 12:05 | 41.23702 | -8.67442 | 238 ft | 8 kts | 169° |
| 2026-05-05 12:05 | 41.23635 | -8.67425 | 234 ft | 10 kts | 169° |
| 2026-05-05 12:06 | 41.23568 | -8.67407 | 234 ft | 10 kts | 169° |
| 2026-05-05 12:06 | 41.23502 | -8.67390 | 234 ft | 10 kts | 169° |
| 2026-05-05 12:06 | 41.23438 | -8.67373 | 234 ft | 9 kts | 169° |
| 2026-05-05 12:06 | 41.23375 | -8.67363 | 234 ft | 9 kts | 189° |
| 2026-05-05 12:07 | 41.23336 | -8.67422 | 236 ft | 9 kts | 253° |
| 2026-05-05 12:07 | 41.23322 | -8.67500 | 234 ft | 9 kts | 257° |
| 2026-05-05 12:07 | 41.23311 | -8.67576 | 236 ft | 8 kts | 258° |
| 2026-05-05 12:07 | 41.23300 | -8.67650 | 238 ft | 8 kts | 263° |
| 2026-05-05 12:08 | 41.23317 | -8.67717 | 237 ft | 8 kts | 315° |
| 2026-05-05 12:08 | 41.23371 | -8.67745 | 236 ft | 13 kts | 348° |
| 2026-05-05 12:08 | 41.23679 | -8.67827 | 234 ft | 82 kts | 349° |
| 2026-05-05 12:08 | 41.24457 | -8.68031 | 239 ft | 144 kts | 349° |
| 2026-05-05 12:09 | 41.25601 | -8.68344 | 408 ft | 184 kts | 347° |
| 2026-05-05 12:09 | 41.26870 | -8.68670 | 1294 ft | 185 kts | 347° |
| 2026-05-05 12:09 | 41.28090 | -8.69007 | 2368 ft | 175 kts | 346° |
| 2026-05-05 12:09 | 41.29336 | -8.69355 | 2895 ft | 195 kts | 347° |
| 2026-05-05 12:10 | 41.30754 | -8.69717 | 3124 ft | 218 kts | 348° |
| 2026-05-05 12:10 | 41.32277 | -8.70107 | 3535 ft | 230 kts | 348° |
| 2026-05-05 12:10 | 41.33890 | -8.70534 | 3932 ft | 246 kts | 347° |
| 2026-05-05 12:10 | 41.35612 | -8.70994 | 4548 ft | 254 kts | 348° |
| 2026-05-05 12:11 | 41.37349 | -8.71460 | 5420 ft | 256 kts | 347° |
| 2026-05-05 12:11 | 41.39110 | -8.71894 | 6214 ft | 259 kts | 355° |
| 2026-05-05 12:11 | 41.40886 | -8.71472 | 6996 ft | 265 kts | 24° |
| 2026-05-05 12:11 | 41.42331 | -8.69935 | 7714 ft | 273 kts | 49° |
| 2026-05-05 12:12 | 41.43222 | -8.67669 | 8464 ft | 282 kts | 70° |
| 2026-05-05 12:12 | 41.43694 | -8.65105 | 9208 ft | 287 kts | 73° |
| 2026-05-05 12:12 | 41.44186 | -8.62511 | 9924 ft | 290 kts | 72° |
| 2026-05-05 12:12 | 41.44694 | -8.59915 | 10439 ft | 299 kts | 72° |
| 2026-05-05 12:13 | 41.45241 | -8.57128 | 10593 ft | 321 kts | 72° |
| 2026-05-05 12:13 | 41.45822 | -8.54154 | 10755 ft | 342 kts | 72° |
| 2026-05-05 12:13 | 41.46434 | -8.50992 | 11027 ft | 357 kts | 72° |
| 2026-05-05 12:13 | 41.47055 | -8.47748 | 11551 ft | 364 kts | 73° |
| 2026-05-05 12:14 | 41.47683 | -8.44454 | 12188 ft | 368 kts | 73° |
| 2026-05-05 12:14 | 41.48314 | -8.41127 | 12810 ft | 372 kts | 73° |
| 2026-05-05 12:14 | 41.48949 | -8.37768 | 13426 ft | 375 kts | 73° |
| 2026-05-05 12:14 | 41.49584 | -8.34413 | 13996 ft | 379 kts | 72° |
| 2026-05-05 12:15 | 41.50234 | -8.30969 | 14507 ft | 384 kts | 72° |
| 2026-05-05 12:15 | 41.50891 | -8.27485 | 15079 ft | 386 kts | 72° |
| 2026-05-05 12:15 | 41.51550 | -8.23984 | 15621 ft | 390 kts | 72° |
| 2026-05-05 12:15 | 41.52205 | -8.20498 | 16132 ft | 393 kts | 72° |
| 2026-05-05 12:16 | 41.52873 | -8.16934 | 16687 ft | 396 kts | 72° |
| 2026-05-05 12:16 | 41.53544 | -8.13351 | 17208 ft | 400 kts | 72° |
| 2026-05-05 12:16 | 41.54221 | -8.09735 | 17704 ft | 404 kts | 72° |
| 2026-05-05 12:16 | 41.54902 | -8.06082 | 18200 ft | 407 kts | 72° |
| 2026-05-05 12:17 | 41.55590 | -8.02389 | 18661 ft | 411 kts | 72° |
| 2026-05-05 12:17 | 41.56280 | -7.98679 | 19112 ft | 413 kts | 72° |
| 2026-05-05 12:17 | 41.56974 | -7.94936 | 19508 ft | 416 kts | 72° |
| 2026-05-05 12:17 | 41.57675 | -7.91156 | 19905 ft | 420 kts | 72° |
| 2026-05-05 12:18 | 41.58379 | -7.87348 | 20324 ft | 423 kts | 72° |
| 2026-05-05 12:18 | 41.59084 | -7.83523 | 20754 ft | 426 kts | 72° |
| 2026-05-05 12:18 | 41.59785 | -7.79709 | 21160 ft | 429 kts | 72° |
| 2026-05-05 12:18 | 41.60508 | -7.75776 | 21582 ft | 432 kts | 71° |
| 2026-05-05 12:19 | 41.61216 | -7.71909 | 22012 ft | 435 kts | 71° |
| 2026-05-05 12:19 | 41.61941 | -7.67949 | 22416 ft | 437 kts | 72° |
| 2026-05-05 12:19 | 41.62665 | -7.63980 | 22820 ft | 440 kts | 72° |
| 2026-05-05 12:19 | 41.63388 | -7.60003 | 23230 ft | 442 kts | 72° |
| 2026-05-05 12:20 | 41.64117 | -7.55990 | 23613 ft | 445 kts | 72° |
| 2026-05-05 12:20 | 41.64850 | -7.51950 | 23923 ft | 447 kts | 72° |
| 2026-05-05 12:20 | 41.65574 | -7.47947 | 24223 ft | 450 kts | 72° |
| 2026-05-05 12:20 | 41.66308 | -7.43878 | 24533 ft | 452 kts | 72° |
| 2026-05-05 12:21 | 41.67053 | -7.39743 | 24830 ft | 454 kts | 72° |
| 2026-05-05 12:21 | 41.67793 | -7.35624 | 25106 ft | 456 kts | 72° |
| 2026-05-05 12:21 | 41.68536 | -7.31483 | 25386 ft | 459 kts | 72° |
| 2026-05-05 12:21 | 41.69281 | -7.27319 | 25687 ft | 461 kts | 72° |
| 2026-05-05 12:22 | 41.70017 | -7.23199 | 25963 ft | 463 kts | 72° |
| 2026-05-05 12:22 | 41.70765 | -7.18999 | 26207 ft | 465 kts | 72° |
| 2026-05-05 12:22 | 41.71518 | -7.14765 | 26462 ft | 468 kts | 72° |
| 2026-05-05 12:22 | 41.72272 | -7.10511 | 26733 ft | 469 kts | 72° |
| 2026-05-05 12:23 | 41.73029 | -7.06234 | 26987 ft | 472 kts | 72° |
| 2026-05-05 12:23 | 41.73777 | -7.01993 | 27222 ft | 474 kts | 72° |
| 2026-05-05 12:23 | 41.74538 | -6.97672 | 27460 ft | 476 kts | 72° |
| 2026-05-05 12:23 | 41.75300 | -6.93337 | 27686 ft | 478 kts | 72° |
| 2026-05-05 12:24 | 41.76064 | -6.88979 | 27925 ft | 480 kts | 72° |
| 2026-05-05 12:24 | 41.76827 | -6.84610 | 28145 ft | 483 kts | 72° |
| 2026-05-05 12:24 | 41.77593 | -6.80221 | 28350 ft | 485 kts | 72° |
| 2026-05-05 12:24 | 41.78359 | -6.75817 | 28575 ft | 487 kts | 72° |
| 2026-05-05 12:25 | 41.79118 | -6.71440 | 28767 ft | 489 kts | 73° |
| 2026-05-05 12:25 | 41.79890 | -6.66983 | 28990 ft | 491 kts | 73° |
| 2026-05-05 12:25 | 41.80661 | -6.62520 | 29203 ft | 492 kts | 73° |
| 2026-05-05 12:25 | 41.81432 | -6.58040 | 29487 ft | 492 kts | 73° |
| 2026-05-05 12:26 | 41.82194 | -6.53606 | 29799 ft | 491 kts | 73° |
| 2026-05-05 12:26 | 41.82958 | -6.49141 | 30071 ft | 492 kts | 73° |
| 2026-05-05 12:26 | 41.83725 | -6.44658 | 30279 ft | 492 kts | 73° |
| 2026-05-05 12:26 | 41.84488 | -6.40184 | 30524 ft | 492 kts | 73° |
| 2026-05-05 12:27 | 41.85248 | -6.35714 | 30771 ft | 491 kts | 73° |
| 2026-05-05 12:27 | 41.86008 | -6.31236 | 30996 ft | 491 kts | 73° |
| 2026-05-05 12:27 | 41.86767 | -6.26749 | 31212 ft | 492 kts | 73° |
| 2026-05-05 12:27 | 41.87514 | -6.22327 | 31420 ft | 492 kts | 74° |
| 2026-05-05 12:28 | 41.88277 | -6.17800 | 31673 ft | 491 kts | 74° |
| 2026-05-05 12:28 | 41.89023 | -6.13357 | 31905 ft | 491 kts | 74° |
| 2026-05-05 12:28 | 41.89776 | -6.08867 | 32104 ft | 492 kts | 74° |
| 2026-05-05 12:28 | 41.90525 | -6.04386 | 32309 ft | 492 kts | 74° |
| 2026-05-05 12:29 | 41.91273 | -5.99899 | 32525 ft | 492 kts | 75° |
| 2026-05-05 12:29 | 41.92011 | -5.95463 | 32747 ft | 492 kts | 75° |
| 2026-05-05 12:29 | 41.92756 | -5.90973 | 32949 ft | 493 kts | 75° |
| 2026-05-05 12:29 | 41.93502 | -5.86464 | 33148 ft | 493 kts | 75° |
| 2026-05-05 12:30 | 41.94243 | -5.81970 | 33384 ft | 493 kts | 75° |
| 2026-05-05 12:30 | 41.94984 | -5.77470 | 33606 ft | 492 kts | 75° |
| 2026-05-05 12:30 | 41.95724 | -5.72964 | 33808 ft | 492 kts | 75° |
| 2026-05-05 12:30 | 41.96450 | -5.68529 | 33997 ft | 492 kts | 75° |
| 2026-05-05 12:31 | 41.97185 | -5.64027 | 34181 ft | 492 kts | 75° |
| 2026-05-05 12:31 | 41.97920 | -5.59515 | 34382 ft | 491 kts | 76° |
| 2026-05-05 12:31 | 41.98648 | -5.55030 | 34570 ft | 491 kts | 76° |
| 2026-05-05 12:31 | 41.99374 | -5.50548 | 34738 ft | 490 kts | 76° |
| 2026-05-05 12:32 | 42.00100 | -5.46057 | 34898 ft | 491 kts | 76° |
| 2026-05-05 12:32 | 42.00823 | -5.41575 | 35083 ft | 490 kts | 76° |
| 2026-05-05 12:32 | 42.01534 | -5.37151 | 35287 ft | 488 kts | 76° |
| 2026-05-05 12:32 | 42.02249 | -5.32686 | 35475 ft | 487 kts | 76° |
| 2026-05-05 12:33 | 42.02963 | -5.28224 | 35631 ft | 487 kts | 76° |
| 2026-05-05 12:33 | 42.03675 | -5.23760 | 35766 ft | 487 kts | 76° |
| 2026-05-05 12:33 | 42.04387 | -5.19285 | 35908 ft | 487 kts | 76° |
| 2026-05-05 12:33 | 42.05084 | -5.14891 | 35990 ft | 487 kts | 77° |
| 2026-05-05 12:34 | 42.06496 | -5.05954 | 36001 ft | 488 kts | 77° |
| 2026-05-05 12:34 | 42.07899 | -4.97026 | 36006 ft | 487 kts | 77° |
| 2026-05-05 12:35 | 42.09294 | -4.88106 | 36005 ft | 487 kts | 77° |
| 2026-05-05 12:35 | 42.10684 | -4.79166 | 36007 ft | 487 kts | 77° |
| 2026-05-05 12:36 | 42.11834 | -4.71733 | 36003 ft | 487 kts | 77° |
| 2026-05-05 12:36 | 42.13431 | -4.61349 | 36004 ft | 487 kts | 77° |
| 2026-05-05 12:37 | 42.14577 | -4.53863 | 36002 ft | 487 kts | 77° |
| 2026-05-05 12:37 | 42.15931 | -4.44972 | 36007 ft | 487 kts | 77° |
| 2026-05-05 12:38 | 42.17288 | -4.36005 | 35997 ft | 488 kts | 78° |
| 2026-05-05 12:38 | 42.18641 | -4.27022 | 36005 ft | 488 kts | 78° |
| 2026-05-05 12:39 | 42.19984 | -4.18048 | 35994 ft | 488 kts | 78° |
| 2026-05-05 12:39 | 42.21321 | -4.09068 | 35991 ft | 489 kts | 78° |
| 2026-05-05 12:40 | 42.22656 | -4.00054 | 36001 ft | 489 kts | 78° |
| 2026-05-05 12:40 | 42.23974 | -3.91099 | 35999 ft | 489 kts | 78° |
| 2026-05-05 12:41 | 42.25295 | -3.82074 | 35998 ft | 489 kts | 78° |
| 2026-05-05 12:41 | 42.26609 | -3.73042 | 35997 ft | 489 kts | 79° |
| 2026-05-05 12:42 | 42.27906 | -3.64078 | 35995 ft | 489 kts | 79° |
| 2026-05-05 12:42 | 42.29205 | -3.55045 | 35997 ft | 490 kts | 79° |
| 2026-05-05 12:43 | 42.30498 | -3.45996 | 35995 ft | 490 kts | 79° |
| 2026-05-05 12:43 | 42.31778 | -3.36994 | 35998 ft | 490 kts | 79° |
| 2026-05-05 12:44 | 42.33059 | -3.27925 | 35989 ft | 490 kts | 79° |
| 2026-05-05 12:44 | 42.34332 | -3.18864 | 35995 ft | 490 kts | 79° |
| 2026-05-05 12:45 | 42.35592 | -3.09837 | 35988 ft | 490 kts | 80° |
| 2026-05-05 12:45 | 42.36849 | -3.00776 | 35990 ft | 490 kts | 80° |
| 2026-05-05 12:46 | 42.38102 | -2.91697 | 35996 ft | 490 kts | 80° |
| 2026-05-05 12:46 | 42.39340 | -2.82664 | 35988 ft | 490 kts | 80° |
| 2026-05-05 12:47 | 42.40576 | -2.73589 | 35987 ft | 490 kts | 80° |
| 2026-05-05 12:47 | 42.41809 | -2.64483 | 35982 ft | 491 kts | 80° |
| 2026-05-05 12:48 | 42.43036 | -2.55364 | 35964 ft | 491 kts | 81° |
| 2026-05-05 12:48 | 42.44246 | -2.46313 | 35968 ft | 491 kts | 81° |
| 2026-05-05 12:49 | 42.45459 | -2.37187 | 35969 ft | 491 kts | 81° |
| 2026-05-05 12:49 | 42.46717 | -2.28074 | 35965 ft | 492 kts | 79° |
| 2026-05-05 12:50 | 42.48239 | -2.19032 | 35970 ft | 492 kts | 77° |
| 2026-05-05 12:50 | 42.49803 | -2.10019 | 35972 ft | 493 kts | 78° |
| 2026-05-05 12:51 | 42.51329 | -2.00959 | 35975 ft | 493 kts | 78° |
| 2026-05-05 12:51 | 42.52827 | -1.91861 | 35984 ft | 493 kts | 78° |
| 2026-05-05 12:52 | 42.54309 | -1.82770 | 35975 ft | 493 kts | 78° |
| 2026-05-05 12:52 | 42.55783 | -1.73682 | 35979 ft | 493 kts | 79° |
| 2026-05-05 12:53 | 42.57253 | -1.64581 | 35973 ft | 494 kts | 79° |
| 2026-05-05 12:53 | 42.58709 | -1.55529 | 35976 ft | 494 kts | 79° |
| 2026-05-05 12:54 | 42.60886 | -1.41894 | 35976 ft | 493 kts | 79° |
| 2026-05-05 12:55 | 42.62335 | -1.32762 | 35974 ft | 493 kts | 79° |
| 2026-05-05 12:55 | 42.63767 | -1.23679 | 35988 ft | 493 kts | 79° |
| 2026-05-05 12:56 | 42.65201 | -1.14545 | 35977 ft | 493 kts | 79° |
| 2026-05-05 12:56 | 42.66621 | -1.05435 | 35977 ft | 492 kts | 79° |
| 2026-05-05 12:57 | 42.68036 | -0.96319 | 35998 ft | 492 kts | 80° |
| 2026-05-05 12:57 | 42.69435 | -0.87247 | 35985 ft | 492 kts | 80° |
| 2026-05-05 12:58 | 42.70836 | -0.78115 | 35974 ft | 493 kts | 80° |
| 2026-05-05 12:58 | 42.72223 | -0.69021 | 35979 ft | 493 kts | 80° |
| 2026-05-05 12:59 | 42.73614 | -0.59852 | 35981 ft | 494 kts | 80° |
| 2026-05-05 12:59 | 42.74989 | -0.50731 | 35964 ft | 494 kts | 80° |
| 2026-05-05 13:00 | 42.77057 | -0.36927 | 35969 ft | 494 kts | 81° |
| 2026-05-05 13:01 | 42.79778 | -0.18567 | 35976 ft | 496 kts | 81° |
| 2026-05-05 13:01 | 42.80951 | -0.09369 | 35966 ft | 496 kts | 83° |
| 2026-05-05 13:02 | 42.82021 | -0.00060 | 35965 ft | 496 kts | 84° |
| 2026-05-05 13:02 | 42.83092 | 0.09264 | 35961 ft | 498 kts | 83° |
| 2026-05-05 13:03 | 42.84178 | 0.18535 | 35958 ft | 498 kts | 83° |
| 2026-05-05 13:03 | 42.85275 | 0.27861 | 35953 ft | 497 kts | 83° |
| 2026-05-05 13:04 | 42.86363 | 0.37184 | 35964 ft | 497 kts | 84° |
| 2026-05-05 13:04 | 42.87431 | 0.46441 | 35947 ft | 496 kts | 84° |
| 2026-05-05 13:05 | 42.88497 | 0.55747 | 35954 ft | 495 kts | 83° |
| 2026-05-05 13:05 | 42.89549 | 0.64988 | 35959 ft | 496 kts | 84° |
| 2026-05-05 13:06 | 42.90599 | 0.74284 | 35963 ft | 496 kts | 84° |
| 2026-05-05 13:06 | 42.91643 | 0.83598 | 35972 ft | 495 kts | 84° |
| 2026-05-05 13:07 | 42.92681 | 0.92925 | 35964 ft | 497 kts | 84° |
| 2026-05-05 13:07 | 42.93708 | 1.02236 | 35957 ft | 499 kts | 84° |
| 2026-05-05 13:08 | 42.94740 | 1.11658 | 35954 ft | 502 kts | 85° |
| 2026-05-05 13:08 | 42.95764 | 1.21077 | 35963 ft | 503 kts | 85° |
| 2026-05-05 13:09 | 42.96782 | 1.30521 | 35949 ft | 505 kts | 85° |
| 2026-05-05 13:09 | 42.97800 | 1.40030 | 35942 ft | 506 kts | 85° |
| 2026-05-05 13:10 | 42.98808 | 1.49535 | 35941 ft | 505 kts | 85° |
| 2026-05-05 13:10 | 42.99805 | 1.58996 | 35935 ft | 504 kts | 85° |
| 2026-05-05 13:11 | 43.00794 | 1.68471 | 35957 ft | 504 kts | 85° |
| 2026-05-05 13:11 | 43.01777 | 1.77968 | 35946 ft | 503 kts | 85° |
| 2026-05-05 13:12 | 43.02745 | 1.87386 | 35942 ft | 502 kts | 85° |
| 2026-05-05 13:12 | 43.03709 | 1.96856 | 35937 ft | 502 kts | 86° |
| 2026-05-05 13:13 | 43.04666 | 2.06332 | 35928 ft | 502 kts | 86° |
| 2026-05-05 13:13 | 43.05609 | 2.15753 | 35913 ft | 502 kts | 86° |
| 2026-05-05 13:14 | 43.06554 | 2.25273 | 35918 ft | 502 kts | 86° |
| 2026-05-05 13:14 | 43.07480 | 2.34694 | 35915 ft | 502 kts | 86° |
| 2026-05-05 13:15 | 43.08404 | 2.44164 | 35913 ft | 503 kts | 86° |
| 2026-05-05 13:15 | 43.09317 | 2.53607 | 35916 ft | 503 kts | 86° |
| 2026-05-05 13:16 | 43.10233 | 2.63150 | 35920 ft | 505 kts | 87° |
| 2026-05-05 13:16 | 43.11141 | 2.72692 | 35925 ft | 505 kts | 87° |
| 2026-05-05 13:17 | 43.12033 | 2.82193 | 35925 ft | 507 kts | 87° |
| 2026-05-05 13:17 | 43.12928 | 2.91799 | 35925 ft | 508 kts | 87° |
| 2026-05-05 13:18 | 43.13813 | 3.01374 | 35925 ft | 509 kts | 87° |
| 2026-05-05 13:18 | 43.14697 | 3.11023 | 35920 ft | 510 kts | 87° |
| 2026-05-05 13:19 | 43.15569 | 3.20646 | 35909 ft | 510 kts | 87° |
| 2026-05-05 13:19 | 43.16437 | 3.30300 | 35912 ft | 510 kts | 87° |
| 2026-05-05 13:20 | 43.17151 | 3.38327 | 35915 ft | 509 kts | 87° |
| 2026-05-05 13:20 | 43.17997 | 3.47907 | 35912 ft | 508 kts | 88° |
| 2026-05-05 13:21 | 43.18838 | 3.57534 | 35910 ft | 507 kts | 88° |
| 2026-05-05 13:21 | 43.19668 | 3.67128 | 35914 ft | 506 kts | 88° |
| 2026-05-05 13:22 | 43.20488 | 3.76698 | 35919 ft | 504 kts | 88° |
| 2026-05-05 13:22 | 43.21292 | 3.86187 | 35918 ft | 503 kts | 88° |
| 2026-05-05 13:23 | 43.22092 | 3.95718 | 35919 ft | 502 kts | 88° |
| 2026-05-05 13:23 | 43.22884 | 4.05249 | 35922 ft | 501 kts | 88° |
| 2026-05-05 13:24 | 43.23660 | 4.14691 | 35921 ft | 501 kts | 88° |
| 2026-05-05 13:24 | 43.24434 | 4.24200 | 35926 ft | 500 kts | 88° |
| 2026-05-05 13:25 | 43.25199 | 4.33698 | 35925 ft | 500 kts | 88° |
| 2026-05-05 13:25 | 43.25952 | 4.43145 | 35925 ft | 501 kts | 88° |
| 2026-05-05 13:26 | 43.26701 | 4.52640 | 35927 ft | 501 kts | 88° |
| 2026-05-05 13:26 | 43.27444 | 4.62162 | 35929 ft | 501 kts | 88° |
| 2026-05-05 13:27 | 43.28160 | 4.71693 | 35925 ft | 500 kts | 91° |
| 2026-05-05 13:27 | 43.28148 | 4.76391 | 35916 ft | 493 kts | 102° |
| 2026-05-05 13:27 | 43.27739 | 4.81066 | 35945 ft | 491 kts | 103° |
| 2026-05-05 13:28 | 43.26863 | 4.90368 | 35936 ft | 492 kts | 103° |
| 2026-05-05 13:28 | 43.26045 | 4.99696 | 35932 ft | 493 kts | 102° |
| 2026-05-05 13:29 | 43.25258 | 5.09014 | 35936 ft | 494 kts | 102° |
| 2026-05-05 13:29 | 43.24461 | 5.18372 | 35936 ft | 494 kts | 102° |
| 2026-05-05 13:30 | 43.23707 | 5.27767 | 35933 ft | 498 kts | 97° |
| 2026-05-05 13:30 | 43.23831 | 5.32550 | 35933 ft | 505 kts | 86° |
| 2026-05-05 13:30 | 43.24481 | 5.37307 | 35933 ft | 510 kts | 78° |
| 2026-05-05 13:31 | 43.27068 | 5.46365 | 35954 ft | 514 kts | 68° |
| 2026-05-05 13:31 | 43.29961 | 5.55340 | 35932 ft | 514 kts | 68° |
| 2026-05-05 13:32 | 43.32798 | 5.64353 | 35945 ft | 514 kts | 69° |
| 2026-05-05 13:32 | 43.35589 | 5.73398 | 35917 ft | 513 kts | 69° |
| 2026-05-05 13:33 | 43.38358 | 5.82442 | 35924 ft | 511 kts | 69° |
| 2026-05-05 13:33 | 43.41116 | 5.91471 | 35927 ft | 510 kts | 69° |
| 2026-05-05 13:34 | 43.43838 | 6.00404 | 35925 ft | 509 kts | 69° |
| 2026-05-05 13:34 | 43.46593 | 6.09386 | 35918 ft | 508 kts | 68° |
| 2026-05-05 13:35 | 43.49494 | 6.18214 | 35925 ft | 507 kts | 67° |
| 2026-05-05 13:35 | 43.52458 | 6.27094 | 35936 ft | 506 kts | 67° |
| 2026-05-05 13:36 | 43.55365 | 6.35909 | 35933 ft | 506 kts | 67° |
| 2026-05-05 13:36 | 43.58258 | 6.44781 | 35921 ft | 507 kts | 68° |
| 2026-05-05 13:37 | 43.61118 | 6.53604 | 35934 ft | 507 kts | 68° |
| 2026-05-05 13:37 | 43.64000 | 6.62526 | 35954 ft | 508 kts | 68° |
| 2026-05-05 13:38 | 43.65442 | 6.66996 | 35950 ft | 509 kts | 68° |
| 2026-05-05 13:38 | 43.67806 | 6.74342 | 35961 ft | 509 kts | 68° |
| 2026-05-05 13:39 | 43.70658 | 6.83230 | 35967 ft | 509 kts | 68° |
| 2026-05-05 13:39 | 43.73547 | 6.92262 | 35954 ft | 510 kts | 68° |
| 2026-05-05 13:40 | 43.76391 | 7.01187 | 35960 ft | 509 kts | 68° |
| 2026-05-05 13:40 | 43.79260 | 7.10221 | 35977 ft | 509 kts | 68° |
| 2026-05-05 13:41 | 43.82100 | 7.19195 | 35973 ft | 509 kts | 68° |
| 2026-05-05 13:41 | 43.84923 | 7.28145 | 35969 ft | 508 kts | 68° |
| 2026-05-05 13:42 | 43.87750 | 7.37135 | 35957 ft | 507 kts | 68° |
| 2026-05-05 13:42 | 43.90558 | 7.46100 | 35962 ft | 505 kts | 68° |
| 2026-05-05 13:43 | 43.93355 | 7.55058 | 35952 ft | 504 kts | 68° |
| 2026-05-05 13:43 | 43.96115 | 7.63927 | 35951 ft | 503 kts | 68° |
| 2026-05-05 13:44 | 43.98882 | 7.72855 | 35951 ft | 501 kts | 68° |
| 2026-05-05 13:44 | 44.01635 | 7.81765 | 35954 ft | 500 kts | 68° |
| 2026-05-05 13:45 | 44.04373 | 7.90656 | 35962 ft | 499 kts | 68° |
| 2026-05-05 13:45 | 44.07096 | 7.99527 | 35963 ft | 498 kts | 68° |
| 2026-05-05 13:46 | 44.09803 | 8.08379 | 35985 ft | 497 kts | 68° |
| 2026-05-05 13:46 | 44.12514 | 8.17277 | 35967 ft | 497 kts | 68° |
| 2026-05-05 13:47 | 44.15195 | 8.26107 | 35962 ft | 497 kts | 68° |
| 2026-05-05 13:47 | 44.17885 | 8.34992 | 35975 ft | 497 kts | 68° |
| 2026-05-05 13:48 | 44.20569 | 8.43889 | 35958 ft | 497 kts | 69° |
| 2026-05-05 13:48 | 44.23247 | 8.52798 | 35959 ft | 496 kts | 69° |
| 2026-05-05 13:49 | 44.25896 | 8.61643 | 35960 ft | 496 kts | 69° |
| 2026-05-05 13:49 | 44.28550 | 8.70536 | 35967 ft | 496 kts | 69° |
| 2026-05-05 13:50 | 44.31209 | 8.79477 | 35964 ft | 497 kts | 69° |
| 2026-05-05 13:50 | 44.33839 | 8.88351 | 35971 ft | 497 kts | 69° |
| 2026-05-05 13:51 | 44.36480 | 8.97292 | 35969 ft | 498 kts | 69° |
| 2026-05-05 13:51 | 44.39117 | 9.06253 | 35967 ft | 498 kts | 69° |
| 2026-05-05 13:52 | 44.41759 | 9.15263 | 35952 ft | 499 kts | 69° |
| 2026-05-05 13:52 | 44.44374 | 9.24213 | 35956 ft | 498 kts | 69° |
| 2026-05-05 13:53 | 44.46996 | 9.33215 | 35948 ft | 497 kts | 69° |
| 2026-05-05 13:53 | 44.49582 | 9.42129 | 35945 ft | 496 kts | 69° |
| 2026-05-05 13:54 | 44.52169 | 9.51078 | 35965 ft | 493 kts | 69° |
| 2026-05-05 13:54 | 44.54742 | 9.60012 | 35955 ft | 492 kts | 69° |
| 2026-05-05 13:55 | 44.57299 | 9.68920 | 35952 ft | 491 kts | 69° |
| 2026-05-05 13:55 | 44.59831 | 9.77775 | 35959 ft | 490 kts | 69° |
| 2026-05-05 13:56 | 44.62367 | 9.86677 | 35960 ft | 489 kts | 69° |
| 2026-05-05 13:56 | 44.64874 | 9.95506 | 35953 ft | 489 kts | 69° |
| 2026-05-05 13:57 | 44.67387 | 10.04386 | 35964 ft | 488 kts | 69° |
| 2026-05-05 13:57 | 44.69880 | 10.13230 | 35982 ft | 488 kts | 69° |
| 2026-05-05 13:58 | 44.71965 | 10.20650 | 35990 ft | 488 kts | 70° |
| 2026-05-05 13:58 | 44.74464 | 10.29574 | 36001 ft | 489 kts | 70° |
| 2026-05-05 13:59 | 44.78187 | 10.42931 | 35991 ft | 490 kts | 70° |
| 2026-05-05 14:00 | 44.81912 | 10.56366 | 35974 ft | 490 kts | 70° |
| 2026-05-05 14:00 | 44.84387 | 10.65337 | 35965 ft | 490 kts | 70° |
| 2026-05-05 14:01 | 44.86857 | 10.74320 | 35953 ft | 490 kts | 70° |
| 2026-05-05 14:01 | 44.89301 | 10.83241 | 35954 ft | 489 kts | 70° |
| 2026-05-05 14:02 | 44.91752 | 10.92224 | 35959 ft | 489 kts | 70° |
| 2026-05-05 14:02 | 44.94189 | 11.01187 | 35959 ft | 488 kts | 70° |
| 2026-05-05 14:03 | 44.96614 | 11.10137 | 35961 ft | 488 kts | 70° |
| 2026-05-05 14:03 | 44.99029 | 11.19086 | 35961 ft | 487 kts | 70° |
| 2026-05-05 14:04 | 45.01432 | 11.28024 | 35962 ft | 486 kts | 70° |
| 2026-05-05 14:04 | 45.03814 | 11.36916 | 35962 ft | 485 kts | 70° |
| 2026-05-05 14:05 | 45.06195 | 11.45839 | 35966 ft | 485 kts | 70° |
| 2026-05-05 14:05 | 45.08576 | 11.54794 | 35966 ft | 485 kts | 70° |
| 2026-05-05 14:06 | 45.10947 | 11.63748 | 35975 ft | 485 kts | 70° |
| 2026-05-05 14:06 | 45.13308 | 11.72695 | 35985 ft | 485 kts | 70° |
| 2026-05-05 14:07 | 45.15649 | 11.81602 | 35990 ft | 485 kts | 70° |
| 2026-05-05 14:07 | 45.17997 | 11.90567 | 35999 ft | 486 kts | 70° |
| 2026-05-05 14:08 | 45.20348 | 11.99578 | 35988 ft | 486 kts | 70° |
| 2026-05-05 14:08 | 45.22693 | 12.08605 | 36210 ft | 487 kts | 70° |
| 2026-05-05 14:09 | 45.23860 | 12.13107 | 36453 ft | 485 kts | 70° |
| 2026-05-05 14:09 | 45.25021 | 12.17596 | 36710 ft | 482 kts | 70° |
| 2026-05-05 14:09 | 45.26175 | 12.22070 | 36928 ft | 481 kts | 70° |
| 2026-05-05 14:09 | 45.27310 | 12.26475 | 36977 ft | 483 kts | 70° |
| 2026-05-05 14:10 | 45.29624 | 12.35482 | 36984 ft | 483 kts | 70° |
| 2026-05-05 14:10 | 45.31905 | 12.44395 | 36982 ft | 480 kts | 70° |
| 2026-05-05 14:11 | 45.34205 | 12.53301 | 36989 ft | 478 kts | 68° |
| 2026-05-05 14:11 | 45.36719 | 12.62007 | 36986 ft | 478 kts | 66° |
| 2026-05-05 14:12 | 45.39300 | 12.70720 | 36977 ft | 477 kts | 66° |
| 2026-05-05 14:12 | 45.41840 | 12.79440 | 36984 ft | 476 kts | 67° |
| 2026-05-05 14:13 | 45.44352 | 12.88188 | 36986 ft | 476 kts | 67° |
| 2026-05-05 14:13 | 45.46850 | 12.96945 | 36990 ft | 476 kts | 67° |
| 2026-05-05 14:14 | 45.49341 | 13.05705 | 37001 ft | 477 kts | 67° |
| 2026-05-05 14:14 | 45.51824 | 13.14461 | 37002 ft | 477 kts | 67° |
| 2026-05-05 14:15 | 45.54294 | 13.23202 | 37000 ft | 477 kts | 67° |
| 2026-05-05 14:15 | 45.56770 | 13.31998 | 37019 ft | 477 kts | 67° |
| 2026-05-05 14:16 | 45.59230 | 13.40766 | 37008 ft | 478 kts | 67° |
| 2026-05-05 14:16 | 45.61700 | 13.49601 | 37014 ft | 477 kts | 67° |
| 2026-05-05 14:17 | 45.64144 | 13.58380 | 37014 ft | 476 kts | 67° |
| 2026-05-05 14:17 | 45.66588 | 13.67188 | 37012 ft | 476 kts | 67° |
| 2026-05-05 14:18 | 45.69028 | 13.76008 | 37014 ft | 475 kts | 67° |
| 2026-05-05 14:18 | 45.71547 | 13.84696 | 37001 ft | 474 kts | 60° |
| 2026-05-05 14:19 | 45.74829 | 13.92877 | 37008 ft | 473 kts | 57° |
| 2026-05-05 14:19 | 45.78201 | 14.00979 | 37005 ft | 473 kts | 58° |
| 2026-05-05 14:20 | 45.81519 | 14.09093 | 36998 ft | 474 kts | 58° |
| 2026-05-05 14:20 | 45.84822 | 14.17304 | 37005 ft | 475 kts | 58° |
| 2026-05-05 14:21 | 45.88111 | 14.25540 | 37003 ft | 475 kts | 59° |
| 2026-05-05 14:21 | 45.91385 | 14.33766 | 37000 ft | 476 kts | 59° |
| 2026-05-05 14:22 | 45.94676 | 14.42052 | 37000 ft | 476 kts | 59° |
| 2026-05-05 14:22 | 45.97942 | 14.50299 | 36998 ft | 476 kts | 59° |
| 2026-05-05 14:23 | 46.01213 | 14.58582 | 37006 ft | 476 kts | 59° |
| 2026-05-05 14:23 | 46.04462 | 14.66834 | 37001 ft | 475 kts | 59° |
| 2026-05-05 14:24 | 46.07717 | 14.75128 | 36985 ft | 475 kts | 59° |
| 2026-05-05 14:24 | 46.10969 | 14.83437 | 36983 ft | 474 kts | 59° |
| 2026-05-05 14:25 | 46.14209 | 14.91741 | 36964 ft | 474 kts | 59° |
| 2026-05-05 14:25 | 46.17409 | 14.99970 | 36965 ft | 472 kts | 59° |
| 2026-05-05 14:26 | 46.20623 | 15.08257 | 36951 ft | 471 kts | 60° |
| 2026-05-05 14:26 | 46.23816 | 15.16516 | 36947 ft | 470 kts | 60° |
| 2026-05-05 14:27 | 46.26996 | 15.24765 | 36951 ft | 469 kts | 60° |
| 2026-05-05 14:27 | 46.30147 | 15.32965 | 36944 ft | 469 kts | 60° |
| 2026-05-05 14:28 | 46.33322 | 15.41251 | 36940 ft | 469 kts | 60° |
| 2026-05-05 14:28 | 46.36484 | 15.49531 | 36942 ft | 470 kts | 60° |
| 2026-05-05 14:29 | 46.39645 | 15.57830 | 36939 ft | 471 kts | 60° |
| 2026-05-05 14:29 | 46.42788 | 15.66108 | 36944 ft | 471 kts | 60° |
| 2026-05-05 14:30 | 46.45951 | 15.74467 | 36945 ft | 472 kts | 60° |
| 2026-05-05 14:30 | 46.49097 | 15.82804 | 36940 ft | 473 kts | 60° |
| 2026-05-05 14:31 | 46.52261 | 15.91216 | 36936 ft | 473 kts | 60° |
| 2026-05-05 14:31 | 46.55416 | 15.99629 | 36930 ft | 473 kts | 60° |
| 2026-05-05 14:32 | 46.58544 | 16.07997 | 36931 ft | 473 kts | 60° |
| 2026-05-05 14:32 | 46.61687 | 16.16433 | 36912 ft | 473 kts | 61° |
| 2026-05-05 14:33 | 46.64288 | 16.23434 | 36918 ft | 472 kts | 61° |
| 2026-05-05 14:33 | 46.67405 | 16.31845 | 36920 ft | 471 kts | 61° |
| 2026-05-05 14:34 | 46.70514 | 16.40262 | 36907 ft | 465 kts | 61° |
| 2026-05-05 14:34 | 46.72023 | 16.44359 | 36890 ft | 450 kts | 61° |
| 2026-05-05 14:34 | 46.73477 | 16.48316 | 36896 ft | 436 kts | 61° |
| 2026-05-05 14:35 | 46.74890 | 16.52163 | 36415 ft | 437 kts | 61° |
| 2026-05-05 14:35 | 46.76332 | 16.56090 | 35966 ft | 441 kts | 61° |
| 2026-05-05 14:35 | 46.77796 | 16.60085 | 35503 ft | 448 kts | 62° |
| 2026-05-05 14:35 | 46.79264 | 16.64094 | 35034 ft | 449 kts | 62° |
| 2026-05-05 14:36 | 46.80737 | 16.68127 | 34579 ft | 450 kts | 62° |
| 2026-05-05 14:36 | 46.82206 | 16.72154 | 34128 ft | 451 kts | 62° |
| 2026-05-05 14:36 | 46.83680 | 16.76204 | 33635 ft | 451 kts | 62° |
| 2026-05-05 14:36 | 46.85160 | 16.80276 | 33133 ft | 451 kts | 62° |
| 2026-05-05 14:37 | 46.86633 | 16.84335 | 32623 ft | 451 kts | 62° |
| 2026-05-05 14:37 | 46.88103 | 16.88389 | 32127 ft | 451 kts | 62° |
| 2026-05-05 14:37 | 46.89572 | 16.92450 | 31644 ft | 451 kts | 62° |
| 2026-05-05 14:37 | 46.91023 | 16.96466 | 31173 ft | 451 kts | 62° |
| 2026-05-05 14:38 | 46.92510 | 17.00587 | 30696 ft | 453 kts | 62° |
| 2026-05-05 14:38 | 46.93969 | 17.04636 | 30253 ft | 456 kts | 62° |
| 2026-05-05 14:38 | 46.95457 | 17.08770 | 29762 ft | 461 kts | 62° |
| 2026-05-05 14:38 | 46.96958 | 17.12949 | 29233 ft | 463 kts | 62° |
| 2026-05-05 14:39 | 46.98452 | 17.17116 | 28711 ft | 462 kts | 62° |
| 2026-05-05 14:39 | 46.99944 | 17.21285 | 28193 ft | 462 kts | 62° |
| 2026-05-05 14:39 | 47.01433 | 17.25450 | 27686 ft | 461 kts | 62° |
| 2026-05-05 14:39 | 47.02917 | 17.29607 | 27191 ft | 460 kts | 62° |
| 2026-05-05 14:40 | 47.04404 | 17.33781 | 26703 ft | 460 kts | 62° |
| 2026-05-05 14:40 | 47.05869 | 17.37897 | 26239 ft | 460 kts | 62° |
| 2026-05-05 14:40 | 47.07352 | 17.42073 | 25767 ft | 462 kts | 62° |
| 2026-05-05 14:40 | 47.08832 | 17.46245 | 25294 ft | 457 kts | 62° |
| 2026-05-05 14:41 | 47.10293 | 17.50372 | 24835 ft | 452 kts | 62° |
| 2026-05-05 14:41 | 47.11721 | 17.54411 | 24369 ft | 438 kts | 63° |
| 2026-05-05 14:41 | 47.13105 | 17.58330 | 23914 ft | 426 kts | 63° |
| 2026-05-05 14:41 | 47.14451 | 17.62149 | 23469 ft | 415 kts | 63° |
| 2026-05-05 14:42 | 47.15763 | 17.65879 | 22944 ft | 406 kts | 63° |
| 2026-05-05 14:42 | 47.17048 | 17.69535 | 22424 ft | 397 kts | 63° |
| 2026-05-05 14:42 | 47.18293 | 17.73082 | 21928 ft | 390 kts | 63° |
| 2026-05-05 14:42 | 47.19527 | 17.76600 | 21423 ft | 383 kts | 63° |
| 2026-05-05 14:43 | 47.20735 | 17.80051 | 20940 ft | 376 kts | 63° |
| 2026-05-05 14:43 | 47.21926 | 17.83456 | 20465 ft | 370 kts | 63° |
| 2026-05-05 14:43 | 47.23095 | 17.86806 | 19996 ft | 366 kts | 63° |
| 2026-05-05 14:43 | 47.24253 | 17.90126 | 19538 ft | 362 kts | 63° |
| 2026-05-05 14:44 | 47.25401 | 17.93423 | 19079 ft | 359 kts | 63° |
| 2026-05-05 14:44 | 47.26523 | 17.96648 | 18628 ft | 355 kts | 63° |
| 2026-05-05 14:44 | 47.27646 | 17.99881 | 18195 ft | 350 kts | 64° |
| 2026-05-05 14:44 | 47.28747 | 18.03052 | 17683 ft | 347 kts | 64° |
| 2026-05-05 14:45 | 47.29839 | 18.06205 | 17191 ft | 343 kts | 64° |
| 2026-05-05 14:45 | 47.30896 | 18.09333 | 16725 ft | 339 kts | 66° |
| 2026-05-05 14:45 | 47.31859 | 18.12482 | 16260 ft | 335 kts | 68° |
| 2026-05-05 14:45 | 47.32783 | 18.15627 | 15807 ft | 332 kts | 69° |
| 2026-05-05 14:46 | 47.33697 | 18.18758 | 15367 ft | 332 kts | 69° |
| 2026-05-05 14:46 | 47.34610 | 18.21878 | 14930 ft | 331 kts | 69° |
| 2026-05-05 14:46 | 47.35514 | 18.24951 | 14504 ft | 329 kts | 69° |
| 2026-05-05 14:46 | 47.36429 | 18.28048 | 14082 ft | 329 kts | 69° |
| 2026-05-05 14:47 | 47.37348 | 18.31155 | 13635 ft | 328 kts | 70° |
| 2026-05-05 14:47 | 47.38247 | 18.34189 | 13178 ft | 326 kts | 69° |
| 2026-05-05 14:47 | 47.39154 | 18.37255 | 12691 ft | 324 kts | 69° |
| 2026-05-05 14:47 | 47.40057 | 18.40306 | 12250 ft | 322 kts | 69° |
| 2026-05-05 14:48 | 47.40948 | 18.43318 | 11780 ft | 319 kts | 70° |
| 2026-05-05 14:48 | 47.41832 | 18.46307 | 11338 ft | 315 kts | 70° |
| 2026-05-05 14:48 | 47.42703 | 18.49257 | 10891 ft | 312 kts | 70° |
| 2026-05-05 14:48 | 47.43566 | 18.52186 | 10454 ft | 309 kts | 70° |
| 2026-05-05 14:49 | 47.44419 | 18.55084 | 10029 ft | 306 kts | 70° |
| 2026-05-05 14:49 | 47.45265 | 18.57961 | 9569 ft | 304 kts | 70° |
| 2026-05-05 14:49 | 47.46103 | 18.60816 | 9093 ft | 301 kts | 70° |
| 2026-05-05 14:49 | 47.46936 | 18.63653 | 8636 ft | 299 kts | 70° |
| 2026-05-05 14:50 | 47.47752 | 18.66440 | 8183 ft | 297 kts | 70° |
| 2026-05-05 14:50 | 47.48568 | 18.69229 | 7732 ft | 294 kts | 70° |
| 2026-05-05 14:50 | 47.49379 | 18.72005 | 7284 ft | 292 kts | 70° |
| 2026-05-05 14:50 | 47.50185 | 18.74764 | 6869 ft | 290 kts | 70° |
| 2026-05-05 14:51 | 47.50986 | 18.77510 | 6425 ft | 289 kts | 70° |
| 2026-05-05 14:51 | 47.51780 | 18.80233 | 5980 ft | 288 kts | 70° |
| 2026-05-05 14:51 | 47.52561 | 18.82918 | 5547 ft | 287 kts | 70° |
| 2026-05-05 14:51 | 47.53351 | 18.85635 | 5107 ft | 286 kts | 70° |
| 2026-05-05 14:52 | 47.54138 | 18.88346 | 4693 ft | 286 kts | 70° |
| 2026-05-05 14:52 | 47.55185 | 18.90832 | 4278 ft | 288 kts | 44° |
| 2026-05-05 14:52 | 47.56749 | 18.92626 | 4032 ft | 276 kts | 37° |
| 2026-05-05 14:52 | 47.58190 | 18.94293 | 4001 ft | 257 kts | 43° |
| 2026-05-05 14:53 | 47.59121 | 18.96359 | 3968 ft | 230 kts | 82° |
| 2026-05-05 14:53 | 47.58975 | 18.98568 | 3978 ft | 213 kts | 122° |
| 2026-05-05 14:53 | 47.58107 | 19.00306 | 4006 ft | 211 kts | 132° |
| 2026-05-05 14:53 | 47.57197 | 19.02029 | 3933 ft | 211 kts | 134° |
| 2026-05-05 14:54 | 47.56238 | 19.03663 | 3709 ft | 206 kts | 136° |
| 2026-05-05 14:54 | 47.55288 | 19.05211 | 3453 ft | 201 kts | 137° |
| 2026-05-05 14:54 | 47.54364 | 19.06702 | 3223 ft | 195 kts | 138° |
| 2026-05-05 14:54 | 47.53455 | 19.08183 | 2940 ft | 191 kts | 137° |
| 2026-05-05 14:55 | 47.52567 | 19.09615 | 2685 ft | 185 kts | 139° |
| 2026-05-05 14:55 | 47.51721 | 19.10984 | 2480 ft | 175 kts | 139° |
| 2026-05-05 14:55 | 47.50923 | 19.12272 | 2234 ft | 166 kts | 139° |
| 2026-05-05 14:55 | 47.50167 | 19.13491 | 2016 ft | 155 kts | 139° |
| 2026-05-05 14:56 | 47.49443 | 19.14645 | 1816 ft | 150 kts | 139° |
| 2026-05-05 14:56 | 47.48752 | 19.15792 | 1651 ft | 149 kts | 139° |
| 2026-05-05 14:56 | 47.48050 | 19.16956 | 1426 ft | 154 kts | 137° |
| 2026-05-05 14:56 | 47.47319 | 19.18126 | 1222 ft | 160 kts | 138° |
| 2026-05-05 14:57 | 47.46551 | 19.19363 | 939 ft | 163 kts | 138° |
| 2026-05-05 14:57 | 47.45787 | 19.20590 | 801 ft | 163 kts | 139° |
| 2026-05-05 14:57 | 47.45018 | 19.21846 | 619 ft | 163 kts | 135° |
| 2026-05-05 14:57 | 47.44295 | 19.23022 | 463 ft | 148 kts | 138° |
| 2026-05-05 14:58 | 47.43649 | 19.24045 | 452 ft | 120 kts | 133° |
| 2026-05-05 14:58 | 47.43197 | 19.24773 | 455 ft | 69 kts | 134° |
| 2026-05-05 14:58 | 47.43129 | 19.25100 | 456 ft | 28 kts | 46° |
| 2026-05-05 14:58 | 47.43267 | 19.25284 | 456 ft | 26 kts | 41° |
| 2026-05-05 14:59 | 47.43395 | 19.25454 | 456 ft | 24 kts | 42° |
| 2026-05-05 14:59 | 47.43515 | 19.25616 | 456 ft | 23 kts | 42° |
| 2026-05-05 14:59 | 47.43631 | 19.25772 | 456 ft | 22 kts | 42° |
| 2026-05-05 14:59 | 47.43730 | 19.25919 | 456 ft | 16 kts | 67° |
| 2026-05-05 15:00 | 47.43689 | 19.26045 | 456 ft | 14 kts | 133° |
| 2026-05-05 15:00 | 47.43647 | 19.26114 | 456 ft | 13 kts | 131° |
| 2026-05-05 15:00 | 47.43583 | 19.26194 | 456 ft | 8 kts | 155° |
| 2026-05-05 15:00 | 47.43542 | 19.26239 | 456 ft | 7 kts | 134° |
| 2026-05-05 15:01 | 47.43509 | 19.26291 | 456 ft | 6 kts | 140° |
| 2026-05-05 15:01 | 47.43489 | 19.26290 | 456 ft | 3 kts | 201° |
| 2026-05-05 15:01 | 47.43473 | 19.26276 | 456 ft | 3 kts | 217° |
| 2026-05-05 15:01 | 47.43461 | 19.26261 | 456 ft | 2 kts | 221° |
| 2026-05-05 15:02 | 47.43454 | 19.26252 | 454 ft | 0 kts | 220° |